Terminal Aerodrome Forecast
Issued by NWS Pocatello, ID

Home | Current Version | Previous Version | Text Only | Print | Product List | Glossary On
Versions: 1 2 3 4 5 6 7 8 9 10 11 12 13 14 15 16 17 18 19 20 21 22 23 24 25 26 27 28 29 30 31
000
FTUS45 KPIH 191700
TAFPIH
TAF
KPIH 191720Z 1918/2018 18012G20KT P6SM FEW050 BKN070
     FM192300 18011KT P6SM -RA BKN020 OVC050
     FM200800 22011KT 5SM -RASN BKN012 BKN030
     FM201200 22008KT P6SM VCSH SCT010 BKN025
     FM201700 21010KT P6SM SCT025 BKN050=

USA.gov is the U.S. government's official web portal to all federal, state and local government web resources and services.